Time;durP1;ratioP1;P1;durP2;ratioP2;P2;SDS_P1;SDS_P2;PMS_P1;PMS_P2;Temp;Humidity;BMP_temperature;BMP_pressure;BME280_temperature;BME280_humidity;BME280_pressure;Samples;Min_cycle;Max_cycle;Signal;HPM_P1;HPM_P2
2022/01/02 00:01:09;;;;;;;7.47;2.67;;;;;;;;;;2526129;55;21071;-84
2022/01/02 00:03:39;;;;;;;5.80;3.00;;;;;;;;;;2291116;58;21078;-85
2022/01/02 00:06:07;;;;;;;8.70;2.75;;;;;;;;;;2526054;55;21094;-85
2022/01/02 00:08:41;;;;;;;6.05;2.70;;;;;;;;;;2291266;58;21899;-84
2022/01/02 00:11:10;;;;;;;7.28;2.53;;;;;;;;;;2525988;55;21567;-87
2022/01/02 00:13:42;;;;;;;7.70;2.97;;;;;;;;;;2525919;55;21067;-84
2022/01/02 00:16:09;;;;;;;3.17;2.20;;;;;;;;;;2526247;55;21102;-83
2022/01/02 00:18:39;;;;;;;7.85;2.60;;;;;;;;;;2291136;58;21083;-84
2022/01/02 00:21:07;;;;;;;6.40;3.00;;;;;;;;;;2291186;58;21091;-87
2022/01/02 00:23:48;;;;;;;3.83;2.30;;;;;;;;;;2526207;55;21079;-87
2022/01/02 00:26:17;;;;;;;6.70;2.83;;;;;;;;;;2291190;58;21146;-85
2022/01/02 00:28:46;;;;;;;5.87;2.45;;;;;;;;;;2291167;58;21169;-83
2022/01/02 00:31:13;;;;;;;4.22;2.22;;;;;;;;;;2526399;55;21062;-86
2022/01/02 00:33:40;;;;;;;6.07;2.80;;;;;;;;;;2290963;58;21075;-84
2022/01/02 00:36:08;;;;;;;3.70;2.20;;;;;;;;;;2291602;58;21083;-86
2022/01/02 00:38:37;;;;;;;5.57;2.65;;;;;;;;;;2526034;55;21107;-84
2022/01/02 00:41:05;;;;;;;3.05;2.30;;;;;;;;;;2526415;55;21138;-83
2022/01/02 00:43:34;;;;;;;6.85;2.53;;;;;;;;;;2291204;58;21977;-85
2022/01/02 00:46:05;;;;;;;6.55;2.92;;;;;;;;;;2290934;58;21547;-84
2022/01/02 00:48:33;;;;;;;7.32;2.80;;;;;;;;;;2528644;55;21336;-85
2022/01/02 00:51:03;;;;;;;3.65;2.50;;;;;;;;;;2526128;55;21040;-86
2022/01/02 00:53:34;;;;;;;4.75;2.40;;;;;;;;;;2526040;55;21429;-84
2022/01/02 00:56:02;;;;;;;4.70;2.50;;;;;;;;;;2525994;55;21115;-86
2022/01/02 00:58:35;;;;;;;7.55;3.40;;;;;;;;;;2291139;58;21082;-85
2022/01/02 01:01:04;;;;;;;5.10;2.80;;;;;;;;;;2291092;58;21139;-84
2022/01/02 01:03:32;;;;;;;5.40;2.45;;;;;;;;;;2526228;55;21730;-84
2022/01/02 01:06:03;;;;;;;4.43;2.60;;;;;;;;;;2291295;58;21095;-85
2022/01/02 01:08:31;;;;;;;5.47;2.08;;;;;;;;;;2290948;58;21090;-85
2022/01/02 01:10:59;;;;;;;5.60;2.92;;;;;;;;;;2290984;58;21138;-85
2022/01/02 01:13:26;;;;;;;7.07;2.70;;;;;;;;;;2291132;58;21630;-85
2022/01/02 01:15:53;;;;;;;5.25;2.58;;;;;;;;;;2290958;58;21084;-84
2022/01/02 01:18:21;;;;;;;7.18;2.80;;;;;;;;;;2525967;55;21083;-86
2022/01/02 01:20:49;;;;;;;4.10;2.58;;;;;;;;;;2525934;55;21079;-86
2022/01/02 01:23:17;;;;;;;7.62;2.80;;;;;;;;;;2291088;58;21170;-85
2022/01/02 01:25:46;;;;;;;10.60;3.45;;;;;;;;;;2291132;58;21542;-85
2022/01/02 01:28:13;;;;;;;7.97;2.85;;;;;;;;;;2526020;55;21158;-85
2022/01/02 01:30:40;;;;;;;8.80;3.53;;;;;;;;;;2291024;58;21086;-85
2022/01/02 01:33:07;;;;;;;6.70;3.15;;;;;;;;;;2291005;58;21083;-85
2022/01/02 01:35:34;;;;;;;4.97;2.25;;;;;;;;;;2290992;58;21134;-85
2022/01/02 01:38:01;;;;;;;6.18;3.00;;;;;;;;;;2291307;58;22020;-86
2022/01/02 01:40:30;;;;;;;7.37;2.95;;;;;;;;;;2526091;55;21877;-84
2022/01/02 01:42:59;;;;;;;3.85;2.90;;;;;;;;;;2526107;55;21087;-85
2022/01/02 01:45:29;;;;;;;6.60;3.28;;;;;;;;;;2526071;55;21090;-85
2022/01/02 01:47:57;;;;;;;5.60;3.22;;;;;;;;;;2525578;55;21138;-85
2022/01/02 01:50:25;;;;;;;6.18;2.83;;;;;;;;;;2525908;55;21094;-86
2022/01/02 01:52:52;;;;;;;6.55;2.90;;;;;;;;;;2290827;58;21090;-85
2022/01/02 01:55:19;;;;;;;8.25;3.20;;;;;;;;;;2291090;58;21382;-85
2022/01/02 01:57:47;;;;;;;8.20;3.33;;;;;;;;;;2290964;58;21865;-85
2022/01/02 02:00:15;;;;;;;7.20;3.22;;;;;;;;;;2290952;58;21090;-85
2022/01/02 02:02:43;;;;;;;5.72;3.67;;;;;;;;;;2525863;55;21082;-85
2022/01/02 02:05:10;;;;;;;5.95;3.20;;;;;;;;;;2526201;55;21323;-85
2022/01/02 02:07:40;;;;;;;10.80;3.70;;;;;;;;;;2526026;55;21075;-84
2022/01/02 02:10:12;;;;;;;8.63;3.17;;;;;;;;;;2525916;55;21067;-86
2022/01/02 02:12:40;;;;;;;10.48;3.62;;;;;;;;;;2526314;55;21658;-84
2022/01/02 02:15:08;;;;;;;6.68;3.22;;;;;;;;;;2525987;55;21162;-87
2022/01/02 02:17:35;;;;;;;6.90;3.70;;;;;;;;;;2525575;55;21086;-85
2022/01/02 02:20:11;;;;;;;6.47;3.80;;;;;;;;;;2290675;58;21881;-85
2022/01/02 02:22:40;;;;;;;9.75;4.05;;;;;;;;;;2525247;55;21090;-86
2022/01/02 02:25:11;;;;;;;5.97;3.30;;;;;;;;;;2525147;55;21222;-83
2022/01/02 02:27:38;;;;;;;6.65;3.33;;;;;;;;;;2290612;58;21790;-85
2022/01/02 02:30:06;;;;;;;6.15;3.50;;;;;;;;;;2290773;58;21087;-85
2022/01/02 02:32:33;;;;;;;7.82;3.72;;;;;;;;;;2525807;55;21090;-85
2022/01/02 02:35:00;;;;;;;6.82;4.20;;;;;;;;;;2290871;58;21611;-85
2022/01/02 02:37:29;;;;;;;9.38;3.95;;;;;;;;;;2290991;58;21091;-84
2022/01/02 02:39:56;;;;;;;5.97;3.58;;;;;;;;;;2525877;55;22160;-85
2022/01/02 02:42:33;;;;;;;8.90;3.97;;;;;;;;;;2525602;55;21126;-83
2022/01/02 02:48:58;;;;;;;10.07;4.35;;;;;;;;;;2525723;55;21090;-85
2022/01/02 02:51:31;;;;;;;6.10;4.00;;;;;;;;;;2291055;58;21075;-85
2022/01/02 02:53:58;;;;;;;10.52;4.82;;;;;;;;;;2525219;55;21177;-85
2022/01/02 02:56:27;;;;;;;10.32;4.03;;;;;;;;;;2525785;55;21083;-85
2022/01/02 02:58:56;;;;;;;9.32;4.45;;;;;;;;;;2290599;58;21130;-86
2022/01/02 03:01:24;;;;;;;8.20;4.53;;;;;;;;;;2291112;58;21055;-85
2022/01/02 03:03:52;;;;;;;10.27;4.78;;;;;;;;;;2290874;58;21226;-85
2022/01/02 03:06:19;;;;;;;9.30;4.40;;;;;;;;;;2525416;55;21103;-86
2022/01/02 03:08:47;;;;;;;8.60;4.45;;;;;;;;;;2525371;55;21582;-85
2022/01/02 03:11:17;;;;;;;8.45;4.70;;;;;;;;;;2291130;58;21082;-85
2022/01/02 03:13:44;;;;;;;8.38;4.53;;;;;;;;;;2290989;58;22140;-85
2022/01/02 03:16:20;;;;;;;11.77;5.75;;;;;;;;;;2289236;58;21170;-86
2022/01/02 03:18:47;;;;;;;9.05;4.65;;;;;;;;;;2524135;55;21606;-85
2022/01/02 03:21:14;;;;;;;9.57;4.65;;;;;;;;;;2525354;55;21635;-86
2022/01/02 03:23:56;;;;;;;9.93;4.50;;;;;;;;;;2290332;58;21086;-86
2022/01/02 03:26:24;;;;;;;9.88;5.32;;;;;;;;;;2289545;58;22167;-86
2022/01/02 03:28:50;;;;;;;12.20;5.15;;;;;;;;;;2291049;58;21150;-85
2022/01/02 03:31:17;;;;;;;8.38;4.87;;;;;;;;;;2290741;58;21087;-86
2022/01/02 03:33:44;;;;;;;11.02;4.97;;;;;;;;;;2290854;58;21782;-85
2022/01/02 03:36:11;;;;;;;10.32;5.37;;;;;;;;;;2290992;58;21070;-86
2022/01/02 03:38:38;;;;;;;10.25;5.97;;;;;;;;;;2525178;55;21809;-86
2022/01/02 03:41:05;;;;;;;8.05;5.28;;;;;;;;;;2525265;55;21111;-86
2022/01/02 03:43:32;;;;;;;9.57;5.05;;;;;;;;;;2291062;58;21178;-86
2022/01/02 03:46:02;;;;;;;10.55;4.53;;;;;;;;;;2290936;58;21563;-85
2022/01/02 03:48:29;;;;;;;9.10;4.90;;;;;;;;;;2290725;58;21055;-85
2022/01/02 03:50:56;;;;;;;13.45;6.10;;;;;;;;;;2290635;58;21067;-85
2022/01/02 03:53:23;;;;;;;9.32;5.15;;;;;;;;;;2290651;58;21222;-84
2022/01/02 03:55:50;;;;;;;10.38;5.80;;;;;;;;;;2290673;58;21827;-85
2022/01/02 03:58:17;;;;;;;11.57;5.90;;;;;;;;;;2290844;58;21236;-85
2022/01/02 04:00:44;;;;;;;12.90;5.43;;;;;;;;;;2290433;58;21162;-85
2022/01/02 04:03:15;;;;;;;12.88;6.57;;;;;;;;;;2289976;58;21059;-85
2022/01/02 04:05:42;;;;;;;12.68;5.57;;;;;;;;;;2525677;55;21067;-85
2022/01/02 04:08:09;;;;;;;13.50;5.70;;;;;;;;;;2525242;55;21606;-85
2022/01/02 04:10:36;;;;;;;6.68;4.45;;;;;;;;;;2290972;58;21137;-85
2022/01/02 04:13:03;;;;;;;8.85;4.72;;;;;;;;;;2290619;58;21385;-85
2022/01/02 04:15:30;;;;;;;14.63;6.22;;;;;;;;;;2290653;58;21141;-84
2022/01/02 04:17:57;;;;;;;10.48;5.82;;;;;;;;;;2290810;58;21106;-84
2022/01/02 04:20:24;;;;;;;13.70;6.20;;;;;;;;;;2290393;58;21110;-85
2022/01/02 04:22:51;;;;;;;11.27;5.40;;;;;;;;;;2290902;58;21157;-85
2022/01/02 04:25:18;;;;;;;11.18;6.85;;;;;;;;;;2290735;58;21571;-85
2022/01/02 04:27:45;;;;;;;9.27;5.70;;;;;;;;;;2525698;55;21168;-85
2022/01/02 04:30:13;;;;;;;10.80;6.90;;;;;;;;;;2525161;55;21083;-85
2022/01/02 04:32:40;;;;;;;9.00;6.07;;;;;;;;;;2525275;55;21147;-85
2022/01/02 04:35:07;;;;;;;11.93;6.82;;;;;;;;;;2525288;54;21083;-85
2022/01/02 04:37:35;;;;;;;12.95;6.60;;;;;;;;;;2290964;58;21278;-85
2022/01/02 04:40:02;;;;;;;14.80;8.20;;;;;;;;;;2290806;58;21139;-85
2022/01/02 04:42:29;;;;;;;12.45;6.93;;;;;;;;;;2290157;58;21134;-85
2022/01/02 04:44:56;;;;;;;10.48;6.25;;;;;;;;;;2525252;55;21083;-85
2022/01/02 04:47:22;;;;;;;12.10;6.55;;;;;;;;;;2290677;58;21083;-86
2022/01/02 04:49:49;;;;;;;13.52;7.07;;;;;;;;;;2290781;58;21700;-84
2022/01/02 04:52:16;;;;;;;17.80;8.38;;;;;;;;;;2290774;58;22089;-84
2022/01/02 04:54:43;;;;;;;13.90;7.78;;;;;;;;;;2290978;58;21874;-84
2022/01/02 04:57:10;;;;;;;13.48;7.22;;;;;;;;;;2525841;55;21631;-84
2022/01/02 04:59:38;;;;;;;11.77;7.85;;;;;;;;;;2290769;58;21158;-84
2022/01/02 05:02:05;;;;;;;15.18;7.70;;;;;;;;;;2290660;58;21989;-84
2022/01/02 05:04:32;;;;;;;11.93;6.97;;;;;;;;;;2290984;58;21102;-83
2022/01/02 05:06:59;;;;;;;13.05;8.88;;;;;;;;;;2525841;55;21071;-84
2022/01/02 05:09:26;;;;;;;13.07;7.15;;;;;;;;;;2290832;58;21146;-85
2022/01/02 05:11:53;;;;;;;9.60;6.90;;;;;;;;;;2291007;58;21142;-84
2022/01/02 05:14:20;;;;;;;12.68;7.90;;;;;;;;;;2525823;55;21753;-83
2022/01/02 05:16:47;;;;;;;11.90;6.95;;;;;;;;;;2291311;58;21110;-83
2022/01/02 05:19:14;;;;;;;11.82;8.27;;;;;;;;;;2290998;58;21089;-84
2022/01/02 05:21:41;;;;;;;14.65;8.23;;;;;;;;;;2525811;55;21153;-84
2022/01/02 05:24:08;;;;;;;11.98;8.13;;;;;;;;;;2526132;55;21094;-84
2022/01/02 05:26:35;;;;;;;13.32;7.97;;;;;;;;;;2290899;58;21074;-84
2022/01/02 05:29:02;;;;;;;17.37;8.10;;;;;;;;;;2290680;58;21329;-84
2022/01/02 05:31:29;;;;;;;10.77;7.05;;;;;;;;;;2525521;55;21066;-85
2022/01/02 05:33:57;;;;;;;11.82;7.78;;;;;;;;;;2499072;54;21136;-82
2022/01/02 05:36:24;;;;;;;13.48;7.95;;;;;;;;;;2498198;55;21658;-82
2022/01/02 05:38:52;;;;;;;14.23;7.95;;;;;;;;;;2267810;59;21648;-83
2022/01/02 05:41:19;;;;;;;13.70;8.70;;;;;;;;;;2497981;55;21139;-81
2022/01/02 05:43:46;;;;;;;15.95;9.00;;;;;;;;;;2525077;54;21198;-83
2022/01/02 05:46:13;;;;;;;12.20;8.50;;;;;;;;;;2307578;58;21084;-82
2022/01/02 05:48:40;;;;;;;13.62;8.80;;;;;;;;;;2545901;54;21216;-82
2022/01/02 05:51:08;;;;;;;17.45;8.82;;;;;;;;;;2545783;54;21115;-82
2022/01/02 05:53:35;;;;;;;15.60;8.60;;;;;;;;;;2545814;53;21155;-83
2022/01/02 05:56:02;;;;;;;11.38;7.55;;;;;;;;;;2544941;54;21063;-83
2022/01/02 05:58:29;;;;;;;13.32;8.00;;;;;;;;;;2546109;54;21079;-81
2022/01/02 06:00:56;;;;;;;10.90;6.65;;;;;;;;;;2546317;54;21068;-83
2022/01/02 06:03:24;;;;;;;13.90;8.10;;;;;;;;;;2546511;53;21146;-84
2022/01/02 06:05:51;;;;;;;14.05;8.15;;;;;;;;;;2546153;54;21167;-83
2022/01/02 06:08:18;;;;;;;13.73;8.48;;;;;;;;;;2546635;54;21157;-83
2022/01/02 06:10:45;;;;;;;14.57;8.20;;;;;;;;;;2547105;54;21146;-81
2022/01/02 06:13:12;;;;;;;13.38;8.25;;;;;;;;;;2546432;53;21167;-82
2022/01/02 06:15:39;;;;;;;17.77;9.30;;;;;;;;;;2544675;54;21142;-82
2022/01/02 06:18:06;;;;;;;11.48;8.38;;;;;;;;;;2544766;53;21162;-83
2022/01/02 06:20:33;;;;;;;16.30;9.88;;;;;;;;;;2544827;54;21596;-82
2022/01/02 06:23:01;;;;;;;16.83;9.90;;;;;;;;;;2544754;54;21087;-82
2022/01/02 06:25:28;;;;;;;15.38;10.15;;;;;;;;;;2544776;54;21393;-82
2022/01/02 06:27:55;;;;;;;18.40;10.68;;;;;;;;;;2544826;53;21150;-81
2022/01/02 06:30:22;;;;;;;14.95;9.68;;;;;;;;;;2544977;54;21178;-82
2022/01/02 06:32:54;;;;;;;13.18;9.23;;;;;;;;;;2544666;53;21091;-83
2022/01/02 06:35:22;;;;;;;16.55;10.38;;;;;;;;;;2545972;54;21132;-83
2022/01/02 06:37:49;;;;;;;16.08;10.23;;;;;;;;;;2545868;54;21155;-81
2022/01/02 06:40:17;;;;;;;19.10;11.30;;;;;;;;;;2545908;54;21072;-83
2022/01/02 06:42:44;;;;;;;14.18;9.85;;;;;;;;;;2546374;53;21099;-84
2022/01/02 06:45:11;;;;;;;16.10;11.30;;;;;;;;;;2546078;54;21095;-82
2022/01/02 06:47:38;;;;;;;15.73;10.13;;;;;;;;;;2546174;54;21167;-84
2022/01/02 06:50:07;;;;;;;17.33;10.60;;;;;;;;;;2545678;54;21825;-82
2022/01/02 06:52:34;;;;;;;18.08;10.57;;;;;;;;;;2546419;54;21083;-83
2022/01/02 06:55:01;;;;;;;16.45;10.95;;;;;;;;;;2546098;54;21598;-84
2022/01/02 06:57:28;;;;;;;16.27;10.95;;;;;;;;;;2545899;54;21067;-86
2022/01/02 06:59:55;;;;;;;20.70;12.10;;;;;;;;;;2545292;54;21099;-84
2022/01/02 07:02:23;;;;;;;19.60;11.25;;;;;;;;;;2545790;54;21405;-82
2022/01/02 07:04:50;;;;;;;13.93;9.80;;;;;;;;;;2546248;53;21150;-83
2022/01/02 07:07:17;;;;;;;16.08;11.00;;;;;;;;;;2545804;54;21147;-85
2022/01/02 07:09:44;;;;;;;18.48;11.88;;;;;;;;;;2545394;54;21238;-83
2022/01/02 07:12:11;;;;;;;15.20;9.85;;;;;;;;;;2545131;54;21345;-83
2022/01/02 07:14:39;;;;;;;14.48;9.88;;;;;;;;;;2544918;53;21095;-83
2022/01/02 07:17:06;;;;;;;13.45;9.15;;;;;;;;;;2546168;54;21091;-82
2022/01/02 07:19:33;;;;;;;14.45;9.25;;;;;;;;;;2546186;54;21207;-84
2022/01/02 07:22:00;;;;;;;19.35;9.77;;;;;;;;;;2545912;53;21231;-83
2022/01/02 07:24:28;;;;;;;12.88;9.27;;;;;;;;;;2545862;53;21059;-84
2022/01/02 07:26:55;;;;;;;15.13;10.07;;;;;;;;;;2545850;54;21445;-84
2022/01/02 07:29:22;;;;;;;16.40;8.93;;;;;;;;;;2545820;54;21330;-82
2022/01/02 07:31:49;;;;;;;11.95;8.63;;;;;;;;;;2546096;54;21072;-85
2022/01/02 07:34:16;;;;;;;14.52;8.00;;;;;;;;;;2546030;53;21131;-84
2022/01/02 07:36:44;;;;;;;12.35;9.73;;;;;;;;;;2546342;54;21096;-82
2022/01/02 07:39:12;;;;;;;14.38;10.15;;;;;;;;;;2545981;54;21075;-82
2022/01/02 07:41:40;;;;;;;18.33;10.80;;;;;;;;;;2545360;54;21103;-85
2022/01/02 07:44:07;;;;;;;16.00;10.45;;;;;;;;;;2546015;53;21148;-85
2022/01/02 07:46:35;;;;;;;16.55;11.05;;;;;;;;;;2546292;54;21083;-84
2022/01/02 07:49:02;;;;;;;16.23;11.35;;;;;;;;;;2545762;54;21123;-84
2022/01/02 07:51:29;;;;;;;18.25;11.35;;;;;;;;;;2545501;54;21151;-84
2022/01/02 07:53:56;;;;;;;15.45;10.90;;;;;;;;;;2545828;53;21151;-84
2022/01/02 07:56:24;;;;;;;23.35;13.40;;;;;;;;;;2545817;54;21326;-83
2022/01/02 07:58:51;;;;;;;16.85;10.57;;;;;;;;;;2545579;53;21079;-85
2022/01/02 08:01:19;;;;;;;20.92;12.20;;;;;;;;;;2545779;54;21131;-85
2022/01/02 08:03:46;;;;;;;18.40;10.65;;;;;;;;;;2546217;54;21171;-85
2022/01/02 08:06:14;;;;;;;15.85;10.90;;;;;;;;;;2546144;54;21076;-85
2022/01/02 08:08:41;;;;;;;17.62;11.40;;;;;;;;;;2546736;54;21087;-86
2022/01/02 08:11:08;;;;;;;20.02;12.25;;;;;;;;;;2546590;53;21065;-84
2022/01/02 08:13:35;;;;;;;15.70;10.20;;;;;;;;;;2546276;53;21079;-85
2022/01/02 08:16:03;;;;;;;19.20;10.32;;;;;;;;;;2546064;54;21126;-84
2022/01/02 08:18:30;;;;;;;15.30;10.88;;;;;;;;;;2546247;53;21083;-84
2022/01/02 08:20:57;;;;;;;19.33;11.73;;;;;;;;;;2545909;54;21131;-83
2022/01/02 08:23:24;;;;;;;20.42;10.82;;;;;;;;;;2546305;53;21166;-82
2022/01/02 08:25:51;;;;;;;18.87;11.70;;;;;;;;;;2546187;54;21191;-85
2022/01/02 08:28:19;;;;;;;24.48;11.57;;;;;;;;;;2546393;54;21095;-84
2022/01/02 08:30:47;;;;;;;17.17;12.23;;;;;;;;;;2546153;54;21091;-84
2022/01/02 08:33:14;;;;;;;22.48;11.35;;;;;;;;;;2546393;53;21414;-85
2022/01/02 08:35:43;;;;;;;16.50;10.43;;;;;;;;;;2546413;54;21056;-84
2022/01/02 08:38:10;;;;;;;16.08;8.63;;;;;;;;;;2546351;54;21088;-86
2022/01/02 08:40:37;;;;;;;13.82;8.48;;;;;;;;;;2545899;54;21825;-84
2022/01/02 08:43:05;;;;;;;16.00;7.78;;;;;;;;;;2546153;53;21478;-85
2022/01/02 08:45:32;;;;;;;11.10;6.30;;;;;;;;;;2546226;54;21128;-84
2022/01/02 08:47:59;;;;;;;16.12;6.75;;;;;;;;;;2546691;54;21131;-84
2022/01/02 08:53:02;;;;;;;12.37;6.53;;;;;;;;;;2335777;57;27870;-76
2022/01/02 08:55:29;;;;;;;11.23;5.50;;;;;;;;;;2347256;57;21073;-76
2022/01/02 08:57:56;;;;;;;9.63;6.00;;;;;;;;;;2347452;57;21057;-77
2022/01/02 09:00:23;;;;;;;9.48;5.50;;;;;;;;;;2623418;52;21043;-76
2022/01/02 09:02:51;;;;;;;11.43;5.90;;;;;;;;;;2374446;56;21106;-77
2022/01/02 09:05:18;;;;;;;9.27;5.22;;;;;;;;;;2374232;56;21106;-76
2022/01/02 09:07:46;;;;;;;9.88;5.53;;;;;;;;;;2375306;56;21043;-76
2022/01/02 09:10:15;;;;;;;10.77;5.57;;;;;;;;;;2627781;52;21055;-77
2022/01/02 09:12:42;;;;;;;9.65;4.78;;;;;;;;;;2375189;56;21113;-76
2022/01/02 09:15:10;;;;;;;9.38;5.28;;;;;;;;;;2374322;56;21145;-78
2022/01/02 09:17:37;;;;;;;11.02;6.03;;;;;;;;;;2374732;56;21052;-78
2022/01/02 09:20:05;;;;;;;14.15;5.18;;;;;;;;;;2374257;56;21062;-77
2022/01/02 09:22:32;;;;;;;15.93;5.40;;;;;;;;;;2375164;56;21090;-76
2022/01/02 09:25:00;;;;;;;11.07;5.57;;;;;;;;;;2374925;56;21059;-76
2022/01/02 09:27:27;;;;;;;8.65;4.87;;;;;;;;;;2375110;56;21039;-76
2022/01/02 09:29:54;;;;;;;10.38;6.00;;;;;;;;;;2374426;56;21613;-77
2022/01/02 09:32:21;;;;;;;12.98;5.68;;;;;;;;;;2374778;56;21042;-77
2022/01/02 09:34:48;;;;;;;9.43;5.07;;;;;;;;;;2374624;56;21197;-76
2022/01/02 09:37:15;;;;;;;11.45;4.70;;;;;;;;;;2375071;56;21118;-76
2022/01/02 09:39:42;;;;;;;10.57;4.70;;;;;;;;;;2374195;56;21063;-76
2022/01/02 09:42:11;;;;;;;12.05;4.80;;;;;;;;;;2374915;56;21629;-77
2022/01/02 09:44:38;;;;;;;10.57;4.62;;;;;;;;;;2374774;56;21110;-76
2022/01/02 09:47:06;;;;;;;9.40;4.43;;;;;;;;;;2374570;56;21051;-77
2022/01/02 09:49:36;;;;;;;12.20;3.92;;;;;;;;;;2374069;56;21047;-77
2022/01/02 09:52:03;;;;;;;10.25;4.32;;;;;;;;;;2374762;56;21112;-77
2022/01/02 09:54:32;;;;;;;11.57;5.07;;;;;;;;;;2374762;56;21103;-77
2022/01/02 09:57:00;;;;;;;12.25;4.85;;;;;;;;;;2374993;56;21093;-77
2022/01/02 09:59:27;;;;;;;10.07;4.97;;;;;;;;;;2374668;56;21154;-77
2022/01/02 10:01:54;;;;;;;10.90;4.40;;;;;;;;;;2374088;56;21054;-77
2022/01/02 10:04:32;;;;;;;9.02;3.83;;;;;;;;;;2373588;56;21050;-77
2022/01/02 10:06:59;;;;;;;11.52;3.62;;;;;;;;;;2374231;56;21510;-77
2022/01/02 10:09:31;;;;;;;9.50;4.00;;;;;;;;;;2373251;56;21139;-77
2022/01/02 10:12:19;;;;;;;15.75;5.00;;;;;;;;;;2373842;56;21612;-78
2022/01/02 10:14:46;;;;;;;16.42;4.70;;;;;;;;;;2373604;56;21051;-77
2022/01/02 10:17:13;;;;;;;10.38;4.25;;;;;;;;;;2373840;56;21035;-76
2022/01/02 10:19:42;;;;;;;11.40;4.22;;;;;;;;;;2374820;56;21102;-76
2022/01/02 10:22:09;;;;;;;9.00;3.67;;;;;;;;;;2373621;56;21054;-75
2022/01/02 10:24:37;;;;;;;7.60;4.15;;;;;;;;;;2374139;56;21558;-76
2022/01/02 10:27:08;;;;;;;9.32;3.75;;;;;;;;;;2373614;56;21035;-76
2022/01/02 10:29:46;;;;;;;10.80;3.53;;;;;;;;;;2373847;56;21541;-76
2022/01/02 10:32:26;;;;;;;9.45;3.65;;;;;;;;;;2373309;56;21098;-76
2022/01/02 10:34:53;;;;;;;10.07;4.40;;;;;;;;;;2373021;56;21118;-77
2022/01/02 10:37:24;;;;;;;9.65;3.95;;;;;;;;;;2373585;56;21058;-76
2022/01/02 10:39:51;;;;;;;11.40;3.80;;;;;;;;;;2372992;56;21051;-76
2022/01/02 10:42:18;;;;;;;11.85;4.40;;;;;;;;;;2373878;56;21128;-77
2022/01/02 10:44:45;;;;;;;8.10;3.87;;;;;;;;;;2373504;56;21051;-77
2022/01/02 10:47:14;;;;;;;14.73;5.12;;;;;;;;;;2373733;56;21043;-77
2022/01/02 10:49:52;;;;;;;13.23;5.00;;;;;;;;;;2373330;56;21094;-77
2022/01/02 10:52:20;;;;;;;8.50;3.67;;;;;;;;;;2373439;56;21047;-77
2022/01/02 10:54:48;;;;;;;11.50;4.37;;;;;;;;;;2373377;56;21047;-77
2022/01/02 10:57:15;;;;;;;13.82;3.90;;;;;;;;;;2373898;56;21059;-77
2022/01/02 10:59:42;;;;;;;10.82;3.45;;;;;;;;;;2373451;56;21700;-77
2022/01/02 11:02:11;;;;;;;10.50;4.07;;;;;;;;;;2626305;52;21577;-77
2022/01/02 11:04:43;;;;;;;8.57;3.30;;;;;;;;;;2373504;56;21122;-76
2022/01/02 11:07:11;;;;;;;11.80;3.58;;;;;;;;;;2373638;56;21712;-77
2022/01/02 11:09:38;;;;;;;12.73;3.95;;;;;;;;;;2372261;56;21059;-76
2022/01/02 11:12:05;;;;;;;12.48;3.62;;;;;;;;;;2373747;56;21110;-77
2022/01/02 11:14:32;;;;;;;9.05;3.92;;;;;;;;;;2373147;56;21095;-74
2022/01/02 11:16:59;;;;;;;9.75;3.33;;;;;;;;;;2626706;52;21047;-76
2022/01/02 11:19:27;;;;;;;7.30;3.25;;;;;;;;;;2373392;56;21593;-75
2022/01/02 11:21:55;;;;;;;7.45;3.28;;;;;;;;;;2373509;56;21035;-76
2022/01/02 11:24:24;;;;;;;13.13;3.97;;;;;;;;;;2373752;56;21126;-76
2022/01/02 11:26:55;;;;;;;8.77;3.72;;;;;;;;;;2373278;56;21540;-75
2022/01/02 11:29:26;;;;;;;12.88;4.15;;;;;;;;;;2373432;56;21590;-76
2022/01/02 11:31:53;;;;;;;8.88;3.72;;;;;;;;;;2628637;52;21055;-73
2022/01/02 11:34:25;;;;;;;6.97;3.75;;;;;;;;;;2323255;55;67694;-82
2022/01/02 11:36:55;;;;;;;9.20;4.05;;;;;;;;;;2540436;54;21066;-82
2022/01/02 11:39:22;;;;;;;11.55;4.65;;;;;;;;;;2529511;54;68990;-77
2022/01/02 11:41:50;;;;;;;10.20;4.00;;;;;;;;;;2270935;59;21146;-78
2022/01/02 11:44:18;;;;;;;9.30;3.58;;;;;;;;;;2270940;59;21086;-77
2022/01/02 11:46:50;;;;;;;8.73;4.28;;;;;;;;;;2502478;55;22801;-78
2022/01/02 11:49:25;;;;;;;11.43;4.57;;;;;;;;;;2515381;54;21215;-80
2022/01/02 11:52:06;;;;;;;6.87;3.60;;;;;;;;;;2532953;54;21056;-79
2022/01/02 11:54:41;;;;;;;9.82;4.03;;;;;;;;;;2532333;54;21195;-76
2022/01/02 11:57:27;;;;;;;9.05;4.18;;;;;;;;;;2296077;58;21118;-77
2022/01/02 11:59:56;;;;;;;7.87;3.75;;;;;;;;;;2295631;58;21614;-76
2022/01/02 12:02:37;;;;;;;10.95;4.00;;;;;;;;;;2295887;58;21135;-77
2022/01/02 12:05:12;;;;;;;9.30;4.10;;;;;;;;;;2296479;58;21609;-78
2022/01/02 12:07:52;;;;;;;6.60;3.72;;;;;;;;;;2296277;58;21068;-77
2022/01/02 12:10:27;;;;;;;8.45;4.20;;;;;;;;;;2295929;58;21598;-77
2022/01/02 12:13:24;;;;;;;12.15;4.35;;;;;;;;;;2296169;58;21131;-78
2022/01/02 12:16:08;;;;;;;16.60;4.35;;;;;;;;;;2295910;58;21152;-78
2022/01/02 12:18:41;;;;;;;13.80;4.65;;;;;;;;;;2296114;58;21143;-78
2022/01/02 12:21:11;;;;;;;19.10;4.20;;;;;;;;;;2532358;54;21410;-78
2022/01/02 12:23:53;;;;;;;9.68;4.20;;;;;;;;;;2296802;58;21398;-79
2022/01/02 12:26:21;;;;;;;11.60;4.57;;;;;;;;;;2533774;54;21048;-79
2022/01/02 12:28:56;;;;;;;8.88;4.57;;;;;;;;;;2297360;58;21079;-78
2022/01/02 12:31:24;;;;;;;9.60;4.07;;;;;;;;;;2296155;58;21112;-78
2022/01/02 12:33:51;;;;;;;11.45;4.62;;;;;;;;;;2296301;58;21060;-79
2022/01/02 12:36:19;;;;;;;10.55;4.80;;;;;;;;;;2296446;58;21111;-78
2022/01/02 12:38:47;;;;;;;10.23;4.90;;;;;;;;;;2296095;58;21052;-78
2022/01/02 12:41:14;;;;;;;8.48;4.62;;;;;;;;;;2296420;58;21630;-78
2022/01/02 12:43:50;;;;;;;8.68;4.35;;;;;;;;;;2296359;58;21068;-78
2022/01/02 12:46:31;;;;;;;10.10;4.10;;;;;;;;;;2296719;58;21155;-78
2022/01/02 12:48:58;;;;;;;9.27;3.60;;;;;;;;;;2296498;58;21123;-78
2022/01/02 12:51:28;;;;;;;8.52;4.20;;;;;;;;;;2296798;58;21677;-78
2022/01/02 12:53:59;;;;;;;14.05;5.60;;;;;;;;;;2296237;58;21566;-78
2022/01/02 12:56:31;;;;;;;9.15;4.65;;;;;;;;;;2297359;58;21166;-78
2022/01/02 12:59:12;;;;;;;11.30;4.90;;;;;;;;;;2532570;54;21079;-78
2022/01/02 13:01:48;;;;;;;14.02;4.80;;;;;;;;;;2532829;54;21550;-78
2022/01/02 13:04:17;;;;;;;10.52;4.78;;;;;;;;;;2296280;58;21856;-77
2022/01/02 13:06:45;;;;;;;11.90;5.50;;;;;;;;;;2296981;58;21155;-79
2022/01/02 13:09:12;;;;;;;12.80;4.72;;;;;;;;;;2296103;58;21060;-78
2022/01/02 13:11:39;;;;;;;10.48;4.45;;;;;;;;;;2296419;58;21116;-77
2022/01/02 13:16:25;;;;;;;13.70;5.22;;;;;;;;;;2355856;57;22062;-76
2022/01/02 13:18:53;;;;;;;10.77;4.87;;;;;;;;;;2353027;56;21051;-77
2022/01/02 13:21:20;;;;;;;17.75;5.80;;;;;;;;;;2375079;56;21373;-76
2022/01/02 13:23:47;;;;;;;11.60;5.57;;;;;;;;;;2375234;56;21628;-77
2022/01/02 13:26:18;;;;;;;12.07;4.43;;;;;;;;;;2375393;56;21027;-77
2022/01/02 13:28:45;;;;;;;11.32;4.80;;;;;;;;;;2374312;56;21861;-76
2022/01/02 13:31:12;;;;;;;8.05;5.35;;;;;;;;;;2375383;56;22214;-76
2022/01/02 13:33:43;;;;;;;14.38;5.32;;;;;;;;;;2374876;56;21062;-77
2022/01/02 13:36:11;;;;;;;11.80;5.43;;;;;;;;;;2375293;56;21126;-76
2022/01/02 13:38:49;;;;;;;11.30;5.05;;;;;;;;;;2374967;56;21046;-76
2022/01/02 13:41:16;;;;;;;6.97;4.65;;;;;;;;;;2628879;52;21047;-76
2022/01/02 13:43:43;;;;;;;12.85;5.37;;;;;;;;;;2375097;56;21031;-76
2022/01/02 13:46:10;;;;;;;7.37;4.55;;;;;;;;;;2374897;56;21517;-76
2022/01/02 13:48:37;;;;;;;10.02;5.80;;;;;;;;;;2374156;56;21058;-76
2022/01/02 13:51:12;;;;;;;10.60;4.90;;;;;;;;;;2374385;56;21139;-76
2022/01/02 13:53:39;;;;;;;9.95;5.80;;;;;;;;;;2375134;56;21094;-76
2022/01/02 13:56:12;;;;;;;14.30;5.30;;;;;;;;;;2628743;52;21035;-76
2022/01/02 13:58:40;;;;;;;6.15;4.15;;;;;;;;;;2374801;56;21078;-76
2022/01/02 14:01:15;;;;;;;12.95;5.40;;;;;;;;;;2628674;52;21035;-76
2022/01/02 14:03:43;;;;;;;8.55;4.00;;;;;;;;;;2374920;56;21026;-77
2022/01/02 14:06:11;;;;;;;7.05;4.35;;;;;;;;;;2629495;52;21042;-77
2022/01/02 14:08:43;;;;;;;5.87;3.70;;;;;;;;;;2375000;56;21027;-77
2022/01/02 14:11:11;;;;;;;7.70;3.90;;;;;;;;;;2374785;56;21051;-77
2022/01/02 14:13:53;;;;;;;9.90;4.15;;;;;;;;;;2373961;56;21078;-78
2022/01/02 14:16:42;;;;;;;7.55;3.83;;;;;;;;;;2375379;56;21051;-78
2022/01/02 14:19:09;;;;;;;6.20;3.70;;;;;;;;;;2627398;52;21323;-75
2022/01/02 14:21:36;;;;;;;7.68;3.60;;;;;;;;;;2374931;56;21114;-76
2022/01/02 14:24:04;;;;;;;10.32;4.47;;;;;;;;;;2374534;56;21549;-76
2022/01/02 14:26:32;;;;;;;8.65;4.05;;;;;;;;;;2374886;56;21526;-80
2022/01/02 14:29:00;;;;;;;15.18;4.75;;;;;;;;;;2374333;56;21293;-75
2022/01/02 14:31:27;;;;;;;7.50;4.80;;;;;;;;;;2374264;56;21035;-77
2022/01/02 14:33:54;;;;;;;7.50;5.18;;;;;;;;;;2373420;56;21086;-77
2022/01/02 14:36:21;;;;;;;11.07;6.62;;;;;;;;;;2374069;56;21118;-76
2022/01/02 14:38:48;;;;;;;803.65;89.28;;;;;;;;;;2373566;56;21601;-75
2022/01/02 14:41:17;;;;;;;15.13;6.62;;;;;;;;;;2627542;52;21049;-77
2022/01/02 14:43:44;;;;;;;15.05;7.00;;;;;;;;;;2373665;56;21125;-76
2022/01/02 14:46:11;;;;;;;17.98;5.53;;;;;;;;;;2373975;56;21032;-77
2022/01/02 14:48:38;;;;;;;12.13;4.60;;;;;;;;;;2375181;56;21054;-78
2022/01/02 14:51:05;;;;;;;15.05;5.30;;;;;;;;;;2374514;56;21047;-77